Time;durP1;ratioP1;P1;durP2;ratioP2;P2;SDS_P1;SDS_P2;PMS_P1;PMS_P2;Temp;Humidity;BMP_temperature;BMP_pressure;BME280_temperature;BME280_humidity;BME280_pressure;Samples;Min_cycle;Max_cycle;Signal;HPM_P1;HPM_P2
2022/10/12 00:01:49;;;;;;;11.90;7.60;;;;;;;17.30;55.21;101875.97;5119254;27;20850;-65
2022/10/12 00:04:14;;;;;;;13.43;7.10;;;;;;;17.35;55.26;101886.97;5128894;28;20413;-65
2022/10/12 00:06:40;;;;;;;10.77;7.37;;;;;;;17.36;55.31;101886.81;5117222;28;20461;-65
2022/10/12 00:09:05;;;;;;;14.55;7.65;;;;;;;17.38;55.20;101887.44;5124397;28;20387;-65
2022/10/12 00:11:31;;;;;;;13.13;7.70;;;;;;;17.40;55.21;101884.56;5109849;28;20402;-66
2022/10/12 00:13:57;;;;;;;13.27;7.47;;;;;;;17.36;55.27;101883.28;5112812;28;20374;-64
2022/10/12 00:16:24;;;;;;;10.40;7.45;;;;;;;17.33;55.27;101876.44;5120606;28;20757;-64
2022/10/12 00:18:54;;;;;;;12.98;7.57;;;;;;;17.35;55.17;101877.09;5123648;28;20792;-65
2022/10/12 00:21:20;;;;;;;15.52;8.25;;;;;;;17.34;55.20;101877.25;5118211;28;20385;-65
2022/10/12 00:23:47;;;;;;;12.45;8.38;;;;;;;17.33;55.23;101875.63;5129871;28;20398;-64
2022/10/12 00:26:15;;;;;;;12.50;8.47;;;;;;;17.33;55.23;101871.09;5126120;27;20383;-65
2022/10/12 00:28:41;;;;;;;12.40;7.90;;;;;;;17.32;55.23;101877.47;5113806;27;20379;-65
2022/10/12 00:31:18;;;;;;;12.27;7.93;;;;;;;17.27;55.28;101865.63;5131208;27;20446;-64
2022/10/12 00:33:45;;;;;;;15.32;8.60;;;;;;;17.32;55.26;101877.47;5133904;27;20378;-65
2022/10/12 00:36:19;;;;;;;12.97;8.17;;;;;;;17.28;55.41;101869.97;5132237;27;20397;-66
2022/10/12 00:38:45;;;;;;;11.98;8.48;;;;;;;17.32;55.50;101873.94;5121888;27;20380;-65
2022/10/12 00:41:12;;;;;;;11.65;8.18;;;;;;;17.29;55.31;101868.97;5127828;27;20376;-65
2022/10/12 00:43:40;;;;;;;13.23;8.18;;;;;;;17.28;55.48;101864.63;5123974;27;20867;-65
2022/10/12 00:46:38;;;;;;;12.40;7.93;;;;;;;17.31;55.51;101872.31;5131110;27;20388;-66
2022/10/12 00:49:13;;;;;;;12.75;7.90;;;;;;;17.23;55.69;101872.38;5126431;27;20385;-66
2022/10/12 00:51:42;;;;;;;12.52;8.02;;;;;;;17.12;56.11;101871.00;5119806;27;20398;-65
2022/10/12 00:54:13;;;;;;;13.48;8.35;;;;;;;17.11;56.01;101872.03;5120834;27;20414;-65
2022/10/12 00:56:43;;;;;;;12.55;7.97;;;;;;;17.15;55.91;101876.81;5133146;27;20366;-65
2022/10/12 00:59:14;;;;;;;13.68;8.10;;;;;;;17.13;56.03;101865.47;5121366;27;20880;-65
2022/10/12 01:01:40;;;;;;;14.13;8.38;;;;;;;17.15;55.89;101870.63;5112703;28;20372;-64
2022/10/12 01:04:06;;;;;;;11.13;7.70;;;;;;;17.07;56.23;101868.91;5112818;28;20423;-65
2022/10/12 01:06:33;;;;;;;10.50;7.78;;;;;;;17.01;56.37;101872.28;5127296;27;20853;-65
2022/10/12 01:08:58;;;;;;;13.27;8.27;;;;;;;16.99;56.43;101866.28;5122261;27;20565;-65
2022/10/12 01:11:24;;;;;;;13.13;8.55;;;;;;;17.03;56.41;101874.78;5123481;27;20773;-64
2022/10/12 01:13:50;;;;;;;15.68;8.38;;;;;;;17.03;56.33;101864.91;5112395;27;20402;-65
2022/10/12 01:16:31;;;;;;;14.40;8.33;;;;;;;17.08;56.37;101861.69;5116451;27;20439;-65
2022/10/12 01:19:22;;;;;;;12.35;8.30;;;;;;;17.07;56.16;101866.22;5126266;27;20385;-65
2022/10/12 01:22:02;;;;;;;13.32;8.30;;;;;;;17.11;56.13;101867.50;5118636;27;20407;-64
2022/10/12 01:24:39;;;;;;;13.00;8.90;;;;;;;17.09;56.32;101866.03;5123374;27;20427;-65
2022/10/12 01:27:32;;;;;;;12.75;8.73;;;;;;;17.08;56.30;101856.31;5130057;27;20388;-65
2022/10/12 01:30:06;;;;;;;12.73;8.77;;;;;;;17.07;56.31;101858.19;5119861;27;20384;-65
2022/10/12 01:33:00;;;;;;;16.27;9.57;;;;;;;17.06;56.19;101871.75;5126513;27;20384;-66
2022/10/12 01:35:29;;;;;;;16.00;8.65;;;;;;;17.08;56.54;101869.72;5126677;27;20472;-65
2022/10/12 01:38:01;;;;;;;12.82;8.30;;;;;;;17.05;56.46;101875.44;5120028;27;20386;-65
2022/10/12 01:40:34;;;;;;;13.63;8.18;;;;;;;17.02;56.46;101868.59;5118130;27;20470;-64
2022/10/12 01:43:01;;;;;;;13.35;8.18;;;;;;;17.01;56.52;101869.63;5124819;27;20410;-65
2022/10/12 01:45:26;;;;;;;12.25;8.20;;;;;;;17.01;56.61;101869.63;5112206;28;20482;-65
2022/10/12 01:47:53;;;;;;;15.30;8.40;;;;;;;17.00;56.48;101882.19;5117487;27;20457;-66
2022/10/12 01:50:21;;;;;;;12.17;8.17;;;;;;;17.00;56.67;101882.19;5121006;27;20490;-65
2022/10/12 01:53:05;;;;;;;12.07;8.18;;;;;;;17.02;56.65;101884.69;5126117;27;20425;-65
2022/10/12 01:55:45;;;;;;;11.35;8.07;;;;;;;17.00;56.60;101878.69;5112436;28;20390;-65
2022/10/12 01:58:25;;;;;;;13.67;8.03;;;;;;;16.99;56.68;101888.53;5118153;27;20389;-65
2022/10/12 02:01:15;;;;;;;12.23;8.20;;;;;;;16.98;56.51;101894.13;5117958;27;20380;-62
2022/10/12 02:03:50;;;;;;;14.20;8.70;;;;;;;16.95;56.65;101884.56;5111543;28;20406;-64
2022/10/12 02:06:19;;;;;;;14.15;8.30;;;;;;;16.96;56.72;101886.25;5126501;27;20378;-65
2022/10/12 02:08:47;;;;;;;10.35;7.05;;;;;;;16.99;56.69;101893.06;5121399;27;20382;-64
2022/10/12 02:11:16;;;;;;;13.00;8.00;;;;;;;16.97;56.65;101895.94;5117791;27;20383;-65
2022/10/12 02:13:49;;;;;;;11.95;7.97;;;;;;;16.94;56.73;101890.97;5124257;27;20413;-65
2022/10/12 02:16:18;;;;;;;12.48;7.80;;;;;;;16.97;56.68;101900.47;5126862;27;20381;-65
2022/10/12 02:18:48;;;;;;;10.10;6.65;;;;;;;16.96;56.62;101893.44;5132386;27;20378;-64
2022/10/12 02:21:17;;;;;;;12.23;7.55;;;;;;;16.97;56.63;101906.66;5119017;27;20383;-66
2022/10/12 02:23:45;;;;;;;13.02;7.80;;;;;;;16.97;56.65;101906.66;5131198;27;20378;-65
2022/10/12 02:26:13;;;;;;;12.38;7.50;;;;;;;16.92;56.70;101897.50;5131954;27;20413;-65
2022/10/12 02:28:43;;;;;;;10.13;7.30;;;;;;;16.95;56.83;101913.22;5118670;27;20405;-65
2022/10/12 02:31:34;;;;;;;12.17;7.03;;;;;;;16.92;56.66;101895.66;5117355;27;20435;-65
2022/10/12 02:34:07;;;;;;;11.90;7.55;;;;;;;16.94;56.74;101903.50;5119245;27;20447;-64
2022/10/12 02:36:42;;;;;;;226.00;122.85;;;;;;;16.94;56.74;101912.41;5113711;27;20762;-65
2022/10/12 02:39:27;;;;;;;34.47;20.85;;;;;;;16.89;56.83;101904.06;5131252;27;20386;-65
2022/10/12 02:41:56;;;;;;;14.13;8.80;;;;;;;16.91;56.86;101906.56;5121200;27;20384;-64
2022/10/12 02:44:32;;;;;;;14.73;8.47;;;;;;;16.86;56.97;101899.06;5106667;27;20428;-64
2022/10/12 02:47:00;;;;;;;11.17;7.77;;;;;;;16.90;57.02;101918.28;5131338;27;20394;-66
2022/10/12 02:49:29;;;;;;;12.82;9.52;;;;;;;16.92;56.84;101916.25;5119662;27;20390;-65
2022/10/12 02:51:56;;;;;;;12.98;7.72;;;;;;;16.88;56.98;101915.78;5125182;27;20399;-64
2022/10/12 02:54:22;;;;;;;15.52;8.30;;;;;;;16.87;56.94;101910.59;5123686;27;20386;-64
2022/10/12 02:56:48;;;;;;;11.50;7.40;;;;;;;16.85;57.14;101908.09;5128418;27;20389;-64
2022/10/12 02:59:15;;;;;;;14.10;7.43;;;;;;;16.79;57.20;101914.16;5130111;27;20370;-65
2022/10/12 03:01:41;;;;;;;15.90;10.82;;;;;;;16.84;57.18;101911.81;5130148;27;20438;-65
2022/10/12 03:04:06;;;;;;;15.03;8.67;;;;;;;16.84;57.23;101911.81;5130053;27;20503;-65
2022/10/12 03:06:32;;;;;;;13.35;9.90;;;;;;;16.80;57.02;101902.47;5130143;27;20858;-65
2022/10/12 03:08:57;;;;;;;13.47;9.50;;;;;;;16.86;57.01;101908.97;5130126;27;20485;-65
2022/10/12 03:11:23;;;;;;;16.07;11.43;;;;;;;16.80;57.05;101914.00;5129542;27;20842;-65
2022/10/12 03:13:53;;;;;;;18.70;16.80;;;;;;;16.77;57.10;101903.63;5129668;27;20859;-64
2022/10/12 03:16:18;;;;;;;14.48;10.30;;;;;;;16.77;57.10;101905.50;5129562;27;20902;-65
2022/10/12 03:18:44;;;;;;;12.30;7.63;;;;;;;16.72;56.95;101900.66;5129713;27;20384;-65
2022/10/12 03:21:09;;;;;;;12.40;8.50;;;;;;;16.73;56.94;101910.38;5128491;27;20377;-64
2022/10/12 03:23:35;;;;;;;12.38;7.88;;;;;;;16.76;57.13;101917.19;5129612;27;20370;-65
2022/10/12 03:26:01;;;;;;;13.65;11.48;;;;;;;16.74;57.03;101916.56;5130552;27;20412;-65
2022/10/12 03:28:27;;;;;;;20.27;18.33;;;;;;;16.71;56.97;101919.59;5130325;27;20405;-64
2022/10/12 03:30:52;;;;;;;9.80;8.60;;;;;;;16.65;57.05;101923.81;5120192;27;20387;-65
2022/10/12 03:33:18;;;;;;;16.52;10.52;;;;;;;16.65;57.15;101923.81;5120473;27;20428;-65
2022/10/12 03:35:44;;;;;;;13.57;9.27;;;;;;;16.65;57.21;101925.69;5130250;27;20469;-64
2022/10/12 03:38:10;;;;;;;11.23;7.50;;;;;;;16.63;57.19;101928.53;5122735;27;20462;-65
2022/10/12 03:40:37;;;;;;;12.73;8.30;;;;;;;16.57;57.33;101913.19;5124043;27;20861;-65
2022/10/12 03:43:02;;;;;;;12.95;7.70;;;;;;;16.63;57.22;101918.66;5125866;27;20470;-64
2022/10/12 03:45:28;;;;;;;10.38;7.35;;;;;;;16.63;57.22;101921.31;5124111;27;20489;-65
2022/10/12 03:47:53;;;;;;;12.90;7.43;;;;;;;16.59;57.25;101909.31;5121889;27;20427;-65
2022/10/12 03:50:19;;;;;;;12.07;8.00;;;;;;;16.60;57.16;101911.00;5124117;27;20410;-65
2022/10/12 03:52:44;;;;;;;13.70;9.13;;;;;;;16.62;57.18;101917.00;5127200;27;20386;-64
2022/10/12 03:55:10;;;;;;;13.83;8.07;;;;;;;16.59;57.39;101911.19;5123953;27;20897;-65
2022/10/12 03:57:35;;;;;;;13.10;9.10;;;;;;;16.61;57.28;101909.97;5121640;27;20420;-65
2022/10/12 04:00:01;;;;;;;34.27;28.53;;;;;;;16.62;57.00;101917.00;5125443;27;20378;-65
2022/10/12 04:02:26;;;;;;;18.35;12.10;;;;;;;16.60;57.03;101902.97;5127949;27;20464;-65
2022/10/12 04:04:53;;;;;;;18.47;11.37;;;;;;;16.66;56.95;101916.66;5121128;28;20421;-65
2022/10/12 04:07:18;;;;;;;14.95;11.25;;;;;;;16.58;56.93;101912.16;5114894;28;20444;-65
2022/10/12 04:09:44;;;;;;;14.50;9.77;;;;;;;16.65;56.95;101926.50;5126087;28;20374;-65
2022/10/12 04:12:09;;;;;;;13.07;8.20;;;;;;;16.63;56.95;101921.31;5127330;28;20809;-65
2022/10/12 04:14:35;;;;;;;10.97;7.60;;;;;;;16.59;56.93;101920.03;5117799;28;20375;-64
2022/10/12 04:17:00;;;;;;;14.83;7.63;;;;;;;16.62;56.87;101918.84;5120223;28;20380;-65
2022/10/12 04:19:26;;;;;;;12.90;8.00;;;;;;;16.59;56.89;101917.34;5114377;28;20869;-64
2022/10/12 04:21:51;;;;;;;17.88;8.10;;;;;;;16.59;57.00;101928.06;5124415;28;20390;-64
2022/10/12 04:24:17;;;;;;;13.60;8.03;;;;;;;16.60;57.02;101926.19;5117361;28;20414;-64
2022/10/12 04:26:42;;;;;;;13.20;7.97;;;;;;;16.59;56.99;101924.56;5124560;28;20386;-65
2022/10/12 04:29:11;;;;;;;13.60;8.60;;;;;;;16.59;56.90;101927.25;5118732;28;20383;-65
2022/10/12 04:31:37;;;;;;;16.95;9.90;;;;;;;16.58;56.98;101933.59;5125608;28;20891;-65
2022/10/12 04:34:02;;;;;;;18.23;9.32;;;;;;;16.59;56.96;101925.38;5122785;28;20388;-65
2022/10/12 04:36:27;;;;;;;14.40;9.57;;;;;;;16.63;56.76;101933.88;5127080;28;20378;-64
2022/10/12 04:38:53;;;;;;;16.40;10.32;;;;;;;16.58;56.87;101930.91;5124983;28;20369;-65
2022/10/12 04:41:19;;;;;;;13.20;9.10;;;;;;;16.57;56.84;101942.66;5123929;28;20389;-65
2022/10/12 04:43:44;;;;;;;14.20;8.57;;;;;;;16.53;56.83;101931.47;5122981;28;20382;-64
2022/10/12 04:46:10;;;;;;;13.23;8.43;;;;;;;16.54;56.66;101938.47;5110823;28;20970;-65
2022/10/12 04:48:36;;;;;;;14.43;8.93;;;;;;;16.50;56.90;101931.00;5127834;28;20434;-64
2022/10/12 04:51:02;;;;;;;13.50;9.00;;;;;;;16.45;56.96;101931.53;5128724;28;20378;-65
2022/10/12 04:53:28;;;;;;;15.70;10.17;;;;;;;16.52;57.02;101942.34;5128081;28;20430;-65
2022/10/12 04:55:53;;;;;;;19.77;9.93;;;;;;;16.53;56.96;101947.53;5127968;28;20390;-66
2022/10/12 04:58:19;;;;;;;15.90;9.97;;;;;;;16.51;56.91;101940.66;5127994;28;20378;-65
2022/10/12 05:00:47;;;;;;;13.57;9.03;;;;;;;16.54;56.90;101946.50;5128436;28;20414;-64
2022/10/12 05:03:12;;;;;;;15.35;9.40;;;;;;;16.54;56.77;101941.16;5127855;28;20386;-65
2022/10/12 05:05:38;;;;;;;17.20;9.20;;;;;;;16.58;56.78;101944.28;5127569;28;20414;-64
2022/10/12 05:08:05;;;;;;;14.57;9.10;;;;;;;16.50;56.69;101945.19;5128207;28;20756;-65
2022/10/12 05:10:31;;;;;;;13.43;8.68;;;;;;;16.55;56.58;101956.22;5096042;27;20470;-65
2022/10/12 05:12:56;;;;;;;15.52;8.73;;;;;;;16.53;56.53;101958.22;5131968;27;20483;-64
2022/10/12 05:15:22;;;;;;;15.40;9.43;;;;;;;16.56;56.42;101957.84;5132107;27;20375;-64
2022/10/12 05:17:47;;;;;;;14.88;8.80;;;;;;;16.59;56.29;101962.84;5132317;27;20481;-64
2022/10/12 05:20:13;;;;;;;15.70;9.33;;;;;;;16.56;56.41;101968.56;5129665;27;20383;-64
2022/10/12 05:22:39;;;;;;;15.25;8.68;;;;;;;16.51;56.53;101967.44;5130498;27;20416;-64
2022/10/12 05:25:05;;;;;;;15.75;9.40;;;;;;;16.55;56.73;101976.81;5132502;27;20410;-64
2022/10/12 05:27:30;;;;;;;12.55;8.70;;;;;;;16.51;56.77;101967.44;5122974;27;20383;-61
2022/10/12 05:29:56;;;;;;;19.35;11.88;;;;;;;16.51;56.65;101962.94;5123735;27;20794;-63
2022/10/12 05:32:21;;;;;;;16.40;10.03;;;;;;;16.55;56.61;101968.78;5120716;27;20383;-63
2022/10/12 05:34:47;;;;;;;17.27;9.07;;;;;;;16.61;56.54;101968.03;5132498;27;20946;-64
2022/10/12 05:37:12;;;;;;;18.90;9.97;;;;;;;16.61;56.47;101963.50;5127453;27;20391;-63
2022/10/12 05:39:38;;;;;;;16.05;9.52;;;;;;;16.66;56.37;101975.53;5121978;27;20374;-64
2022/10/12 05:42:04;;;;;;;22.20;10.07;;;;;;;16.60;56.41;101967.22;5130497;27;20394;-62
2022/10/12 05:44:29;;;;;;;15.50;9.63;;;;;;;16.65;56.41;101969.34;5131095;27;20406;-62
2022/10/12 05:46:54;;;;;;;14.77;9.23;;;;;;;16.69;56.29;101969.81;5117710;27;20384;-63
2022/10/12 05:49:20;;;;;;;20.50;10.45;;;;;;;16.71;56.20;101971.31;5120251;27;20387;-61
2022/10/12 05:51:45;;;;;;;20.57;11.33;;;;;;;16.72;56.39;101972.97;5132616;27;20370;-62
2022/10/12 05:54:11;;;;;;;23.80;11.25;;;;;;;16.72;56.08;101972.97;5127136;27;20382;-62
2022/10/12 05:56:36;;;;;;;26.60;11.60;;;;;;;16.74;56.03;101984.31;5111476;27;20411;-63
2022/10/12 05:59:02;;;;;;;23.60;11.52;;;;;;;16.77;56.01;101978.63;5128676;27;20374;-63
2022/10/12 06:01:29;;;;;;;21.23;11.07;;;;;;;16.77;56.01;101992.00;5125968;27;20457;-63
2022/10/12 06:03:54;;;;;;;17.65;11.93;;;;;;;16.78;55.99;101984.78;5126019;27;20421;-61
2022/10/12 06:06:20;;;;;;;20.10;13.30;;;;;;;16.90;55.94;101985.25;5118959;27;20371;-61
2022/10/12 06:10:19;;;;;;;20.42;12.25;;;;;;;17.04;55.71;101986.31;5088413;27;21038;-62
2022/10/12 06:13:43;;;;;;;18.42;11.95;;;;;;;17.05;55.76;101986.13;5088245;27;20471;-62
2022/10/12 06:16:09;;;;;;;20.13;12.10;;;;;;;17.13;55.22;101991.38;5077496;28;20799;-63
2022/10/12 06:18:34;;;;;;;18.20;10.80;;;;;;;17.19;55.39;102003.22;5080582;28;20410;-62
2022/10/12 06:22:59;;;;;;;17.40;9.90;;;;;;;17.20;55.26;102007.56;5071982;27;20458;-62
2022/10/12 06:25:24;;;;;;;18.35;11.00;;;;;;;17.30;55.13;102012.66;5059855;28;20397;-64
2022/10/12 06:27:50;;;;;;;19.40;11.50;;;;;;;17.36;54.98;102009.28;5045055;28;20868;-63
2022/10/12 06:30:15;;;;;;;18.63;11.33;;;;;;;17.44;54.86;102011.84;5049213;28;20474;-64
2022/10/12 06:33:43;;;;;;;16.30;10.05;;;;;;;17.57;54.62;102020.09;5054530;28;20413;-63
2022/10/12 06:36:09;;;;;;;18.27;10.52;;;;;;;17.58;54.45;102020.94;5044798;28;20401;-62
2022/10/12 06:38:34;;;;;;;15.63;9.93;;;;;;;17.61;54.57;102023.25;5045464;28;20378;-62
2022/10/12 06:41:00;;;;;;;17.57;9.60;;;;;;;17.64;54.46;102022.84;5032511;28;20397;-66
2022/10/12 06:43:25;;;;;;;15.48;9.25;;;;;;;17.65;54.19;102029.91;5045448;28;20891;-66
2022/10/12 06:45:51;;;;;;;16.87;10.20;;;;;;;17.64;54.47;102038.13;5044901;28;20417;-66
2022/10/12 06:48:32;;;;;;;15.93;9.43;;;;;;;17.63;54.36;102026.56;5066716;28;20778;-65
2022/10/12 06:50:58;;;;;;;20.35;10.02;;;;;;;17.67;54.43;102033.22;5061011;28;20893;-66
2022/10/12 06:53:27;;;;;;;14.53;10.00;;;;;;;17.74;54.40;102034.16;5064088;28;20388;-66
2022/10/12 06:55:53;;;;;;;15.88;9.73;;;;;;;17.81;54.43;102039.63;5060214;28;20386;-65
2022/10/12 06:58:18;;;;;;;15.02;9.18;;;;;;;17.85;54.38;102043.63;5056798;28;20952;-66
2022/10/12 07:00:44;;;;;;;18.07;9.73;;;;;;;17.87;54.18;102043.44;5062104;28;20372;-66
2022/10/12 07:03:12;;;;;;;16.15;9.13;;;;;;;17.89;54.16;102047.56;5063625;28;20418;-66
2022/10/12 07:05:37;;;;;;;18.08;9.98;;;;;;;17.92;54.22;102051.75;5061851;28;20390;-65
2022/10/12 07:08:03;;;;;;;13.43;9.60;;;;;;;17.90;54.00;102046.56;5059340;28;20407;-67
2022/10/12 07:11:01;;;;;;;15.60;10.13;;;;;;;17.87;54.03;102052.31;5051515;27;20468;-65
2022/10/12 07:13:26;;;;;;;15.20;10.00;;;;;;;17.85;54.17;102048.13;5045293;28;20411;-66
2022/10/12 07:15:52;;;;;;;13.70;9.82;;;;;;;17.86;54.22;102056.03;5045490;28;20461;-66
2022/10/12 07:18:17;;;;;;;14.97;9.77;;;;;;;17.88;54.08;102047.75;5046184;28;20378;-67
2022/10/12 07:20:43;;;;;;;15.57;9.90;;;;;;;17.94;54.38;102057.75;5038006;28;20379;-67
2022/10/12 07:23:09;;;;;;;14.65;10.02;;;;;;;17.96;54.76;102047.69;5040910;28;20733;-67
2022/10/12 07:25:34;;;;;;;13.93;10.47;;;;;;;17.89;55.15;102047.56;5039998;28;20409;-66
2022/10/12 07:27:59;;;;;;;16.70;9.87;;;;;;;17.92;55.42;102049.91;5038887;28;20385;-66
2022/10/12 07:30:25;;;;;;;12.93;9.60;;;;;;;17.92;55.35;102054.44;5032271;28;20417;-66
2022/10/12 07:32:53;;;;;;;16.43;10.90;;;;;;;17.93;55.47;102059.63;5046765;28;20385;-66
2022/10/12 07:35:18;;;;;;;16.73;10.75;;;;;;;17.92;55.60;102057.94;5043368;28;20374;-66
2022/10/12 07:39:13;;;;;;;14.32;9.88;;;;;;;17.90;55.43;102053.78;5078019;27;20400;-66
2022/10/12 07:41:39;;;;;;;13.95;10.13;;;;;;;17.99;55.45;102066.09;5065602;28;20457;-67
2022/10/12 07:44:04;;;;;;;14.33;10.30;;;;;;;17.99;55.44;102058.03;5065293;28;20893;-67
2022/10/12 07:46:29;;;;;;;18.93;10.13;;;;;;;18.02;55.42;102072.94;5059940;28;20389;-66
2022/10/12 07:48:56;;;;;;;16.45;10.40;;;;;;;18.02;55.40;102063.00;5060616;28;20413;-66
2022/10/12 07:52:59;;;;;;;16.83;11.30;;;;;;;18.00;55.77;102070.41;5037386;28;20914;-66
2022/10/12 07:55:25;;;;;;;14.15;9.60;;;;;;;17.98;55.85;102074.31;5032141;28;20453;-67
2022/10/12 07:57:50;;;;;;;13.20;9.83;;;;;;;17.98;55.72;102069.78;5028353;28;20894;-66
2022/10/12 08:00:16;;;;;;;17.77;10.27;;;;;;;17.99;55.83;102073.28;5034375;28;20396;-67
2022/10/12 08:02:41;;;;;;;14.10;9.30;;;;;;;17.86;55.76;102064.06;5026602;28;20756;-67
2022/10/12 08:05:07;;;;;;;13.63;10.10;;;;;;;17.83;55.99;102061.72;5031329;28;20433;-67
2022/10/12 08:07:33;;;;;;;13.83;9.13;;;;;;;17.80;55.96;102061.25;5026929;28;20394;-67
2022/10/12 08:09:58;;;;;;;13.88;9.70;;;;;;;17.76;56.25;102060.78;5026428;28;20387;-66
2022/10/12 08:14:15;;;;;;;16.10;10.10;;;;;;;17.80;56.28;102069.28;5068817;27;20408;-61
2022/10/12 08:16:43;;;;;;;23.13;12.95;;;;;;;17.81;56.45;102062.91;5046478;28;20823;-65
2022/10/12 08:19:08;;;;;;;14.38;10.35;;;;;;;17.78;56.25;102066.78;5046333;28;20408;-66
2022/10/12 08:21:34;;;;;;;15.20;10.70;;;;;;;17.85;56.40;102074.94;5046838;28;20842;-64
2022/10/12 08:23:59;;;;;;;21.03;11.10;;;;;;;17.98;56.48;102064.41;5046705;28;20382;-65
2022/10/12 08:28:00;;;;;;;17.00;11.32;;;;;;;18.07;55.82;102062.47;5072449;27;20827;-65
2022/10/12 08:30:26;;;;;;;14.60;10.15;;;;;;;18.15;55.60;102070.44;5053800;28;20889;-65
2022/10/12 08:32:52;;;;;;;16.70;10.47;;;;;;;18.15;55.44;102067.75;5055803;28;20377;-65
2022/10/12 08:35:17;;;;;;;19.23;10.80;;;;;;;18.23;55.39;102073.00;5060082;28;20467;-65
2022/10/12 08:37:43;;;;;;;14.68;10.50;;;;;;;18.27;55.21;102081.50;5060375;28;20478;-65
2022/10/12 08:40:27;;;;;;;14.77;9.90;;;;;;;18.24;55.04;102087.25;5060802;28;20380;-65
2022/10/12 08:43:26;;;;;;;15.60;10.13;;;;;;;18.21;54.79;102080.41;5060425;28;20392;-65
2022/10/12 08:45:55;;;;;;;17.75;10.52;;;;;;;18.33;54.70;102081.59;5059996;28;20409;-64
2022/10/12 08:49:49;;;;;;;16.25;10.25;;;;;;;18.42;54.27;102078.78;5048030;28;20400;-65
2022/10/12 08:52:29;;;;;;;13.80;10.20;;;;;;;18.53;54.16;102083.69;5038959;28;20409;-65
2022/10/12 08:54:59;;;;;;;17.58;10.85;;;;;;;18.65;53.92;102076.78;5040204;28;20469;-66
2022/10/12 08:57:25;;;;;;;16.48;9.93;;;;;;;18.76;53.52;102080.81;5038643;28;20390;-66
2022/10/12 08:59:50;;;;;;;14.17;10.40;;;;;;;18.58;53.58;102070.50;5040267;28;20386;-67
2022/10/12 09:02:49;;;;;;;16.02;10.45;;;;;;;18.64;53.60;102071.63;5038586;28;20435;-65
2022/10/12 09:05:22;;;;;;;18.55;10.65;;;;;;;18.82;54.07;102077.41;5036229;28;20478;-66
2022/10/12 09:08:02;;;;;;;14.13;10.45;;;;;;;18.98;54.21;102075.47;5036707;28;20413;-66
2022/10/12 09:10:27;;;;;;;14.50;10.38;;;;;;;19.07;53.69;102068.97;5037277;28;20401;-66
2022/10/12 09:13:07;;;;;;;13.27;10.17;;;;;;;19.09;53.60;102072.28;5038977;28;20385;-66
2022/10/12 09:15:58;;;;;;;16.77;10.52;;;;;;;18.93;53.63;102070.69;5046031;28;20385;-67
2022/10/12 09:18:40;;;;;;;15.40;10.95;;;;;;;19.14;53.53;102063.63;5028018;28;20393;-66
2022/10/12 09:21:12;;;;;;;14.40;9.90;;;;;;;19.32;53.32;102063.16;5041471;28;20376;-66
2022/10/12 09:23:40;;;;;;;18.52;11.00;;;;;;;19.47;52.92;102053.16;5032664;28;20463;-66
2022/10/12 09:26:12;;;;;;;14.38;10.98;;;;;;;19.58;52.81;102055.28;5022916;28;20909;-66
2022/10/12 09:28:53;;;;;;;12.88;10.85;;;;;;;19.48;53.04;102060.16;5027686;28;20441;-67
2022/10/12 09:31:32;;;;;;;22.33;10.80;;;;;;;19.48;53.08;102058.34;5024039;28;20383;-67
2022/10/12 09:34:01;;;;;;;13.32;9.82;;;;;;;19.60;52.56;102044.31;5026928;28;20486;-66
2022/10/12 09:36:31;;;;;;;14.13;10.10;;;;;;;19.34;52.75;102047.66;5028609;28;20451;-66
2022/10/12 09:39:01;;;;;;;17.42;10.27;;;;;;;19.33;52.94;102054.06;5034033;28;20417;-66
2022/10/12 09:41:32;;;;;;;14.27;10.35;;;;;;;19.26;53.32;102054.00;5032017;28;20910;-66
2022/10/12 09:44:01;;;;;;;16.42;10.88;;;;;;;19.17;53.57;102044.44;5045234;28;20473;-66
2022/10/12 09:46:38;;;;;;;13.73;9.95;;;;;;;19.12;53.71;102045.00;5043692;28;20386;-66
2022/10/12 09:49:04;;;;;;;15.82;10.50;;;;;;;19.21;54.00;102045.69;5053936;28;20799;-66
2022/10/12 09:51:31;;;;;;;17.17;10.17;;;;;;;19.30;53.53;102044.53;5059784;28;20377;-66
2022/10/12 09:54:02;;;;;;;16.10;10.43;;;;;;;19.47;53.14;102037.00;5059813;28;20395;-67
2022/10/12 09:56:37;;;;;;;15.68;10.43;;;;;;;19.71;52.30;102037.56;5051084;28;20437;-66
2022/10/12 09:59:06;;;;;;;13.95;10.00;;;;;;;19.64;52.09;102035.69;5061172;28;20391;-66
2022/10/12 10:01:34;;;;;;;14.85;10.70;;;;;;;19.56;51.94;102038.50;5037171;28;21142;-67
2022/10/12 10:04:24;;;;;;;14.80;10.23;;;;;;;19.31;51.77;102040.81;5030752;28;20404;-66
2022/10/12 10:06:50;;;;;;;13.68;10.38;;;;;;;19.32;52.00;102033.56;5032065;28;20387;-65
2022/10/12 10:09:31;;;;;;;13.47;9.87;;;;;;;19.25;51.96;102037.06;5045282;28;20414;-66
2022/10/12 10:12:12;;;;;;;12.07;10.25;;;;;;;19.36;51.86;102027.63;5045968;28;20389;-66
2022/10/12 10:14:37;;;;;;;14.13;10.15;;;;;;;19.52;51.97;102025.63;5043210;28;20414;-66
2022/10/12 10:17:03;;;;;;;14.07;10.27;;;;;;;19.64;51.69;102021.38;5031957;28;20414;-66
2022/10/12 10:19:29;;;;;;;15.47;10.33;;;;;;;19.74;51.61;102021.88;5045070;28;20445;-65
2022/10/12 10:21:54;;;;;;;12.55;10.20;;;;;;;19.90;51.42;102007.28;5031416;28;20394;-66
2022/10/12 10:24:29;;;;;;;16.13;10.10;;;;;;;20.09;51.16;102010.22;5031562;28;20378;-66
2022/10/12 10:27:01;;;;;;;13.40;9.98;;;;;;;20.17;50.69;102016.28;5045512;28;20398;-65
2022/10/12 10:29:39;;;;;;;16.63;10.80;;;;;;;20.17;50.90;102004.69;5042120;28;20420;-67
2022/10/12 10:32:25;;;;;;;15.50;9.93;;;;;;;20.27;50.95;102005.09;5046879;28;20390;-66
2022/10/12 10:35:20;;;;;;;17.20;10.57;;;;;;;20.45;50.13;102004.53;5031600;28;20386;-66
2022/10/12 10:37:54;;;;;;;16.90;10.38;;;;;;;20.57;49.93;101996.69;5031638;28;20982;-67
2022/10/12 10:40:28;;;;;;;16.45;10.23;;;;;;;20.70;49.69;101999.41;5037160;28;20398;-65
2022/10/12 10:43:05;;;;;;;21.65;10.05;;;;;;;20.81;49.33;101993.44;5051449;28;21009;-66
2022/10/12 10:45:52;;;;;;;16.50;9.80;;;;;;;20.95;49.22;101993.41;5051022;28;20391;-66
2022/10/12 10:48:22;;;;;;;15.20;9.80;;;;;;;21.08;49.09;101987.19;5050870;28;20515;-66
2022/10/12 10:51:01;;;;;;;14.10;9.30;;;;;;;21.19;48.83;101978.44;5032928;28;20437;-65
2022/10/12 10:53:42;;;;;;;16.00;10.68;;;;;;;21.27;48.26;101982.81;5031285;28;20386;-66
2022/10/12 10:56:15;;;;;;;19.73;10.45;;;;;;;21.31;47.40;101976.78;5031091;28;20414;-66
2022/10/12 10:58:47;;;;;;;36.77;11.40;;;;;;;21.25;47.23;101974.94;5016147;28;20391;-66
2022/10/12 11:01:21;;;;;;;17.30;10.05;;;;;;;21.39;47.12;101984.66;5050950;28;20523;-66
2022/10/12 11:04:08;;;;;;;15.10;10.13;;;;;;;21.38;46.95;101971.38;5036599;28;20436;-66
2022/10/12 11:06:43;;;;;;;14.13;9.25;;;;;;;21.62;46.61;101969.88;5050561;28;20475;-67
2022/10/12 11:09:31;;;;;;;14.60;10.40;;;;;;;21.60;46.09;101966.56;5036563;28;21131;-65
2022/10/12 11:12:03;;;;;;;19.73;12.23;;;;;;;21.55;46.46;101967.22;5041963;28;20414;-64
2022/10/12 11:14:41;;;;;;;23.80;12.43;;;;;;;21.58;46.37;101961.38;5057885;28;20753;-66
2022/10/12 11:17:17;;;;;;;15.68;10.95;;;;;;;21.63;46.54;101944.56;5035443;28;20392;-67
2022/10/12 11:19:47;;;;;;;19.15;12.85;;;;;;;21.54;46.69;101956.63;5031958;28;20395;-64
2022/10/12 11:22:19;;;;;;;17.40;12.90;;;;;;;21.36;47.26;101941.91;5036779;28;20377;-66
2022/10/12 11:25:07;;;;;;;17.35;11.63;;;;;;;21.48;47.52;101947.53;5034854;28;20484;-66
2022/10/12 11:27:39;;;;;;;20.05;11.50;;;;;;;21.46;47.64;101943.38;5046719;28;20396;-65
2022/10/12 11:30:22;;;;;;;17.70;12.23;;;;;;;21.19;47.86;101933.47;5050805;28;20381;-65
2022/10/12 11:33:04;;;;;;;16.98;13.15;;;;;;;21.23;48.20;101933.88;5049704;28;20381;-66
2022/10/12 11:35:37;;;;;;;17.98;12.40;;;;;;;21.25;47.93;101923.69;5036231;28;20387;-66
2022/10/12 11:38:21;;;;;;;19.65;13.00;;;;;;;21.31;48.34;101927.41;5048390;28;20381;-65
2022/10/12 11:41:12;;;;;;;16.50;12.95;;;;;;;21.27;48.70;101931.56;5048771;28;20384;-65